createdAt,value
2018-04-06T00:01:14.124Z,3.70
2018-04-06T00:03:41.711Z,3.90
2018-04-06T00:06:09.288Z,3.87
2018-04-06T00:08:36.847Z,3.63
2018-04-06T00:11:04.414Z,3.97
2018-04-06T00:13:32.018Z,4.33
2018-04-06T00:15:59.578Z,4.23
2018-04-06T00:18:27.245Z,3.80
2018-04-06T00:20:54.793Z,3.70
2018-04-06T00:23:22.360Z,4.47
2018-04-06T00:25:50.653Z,4.13
2018-04-06T00:28:18.980Z,4.17
2018-04-06T00:30:46.524Z,4.07
2018-04-06T00:33:14.045Z,3.83
2018-04-06T00:35:41.604Z,3.93
2018-04-06T00:38:09.174Z,3.90
2018-04-06T00:40:37.563Z,3.87
2018-04-06T00:43:05.108Z,3.50
2018-04-06T00:45:32.777Z,4.23
2018-04-06T00:48:01.186Z,3.80
2018-04-06T00:50:29.871Z,3.57
2018-04-06T00:52:57.432Z,3.53
2018-04-06T00:55:24.960Z,4.17
2018-04-06T00:57:52.502Z,3.50
2018-04-06T01:00:20.072Z,3.80
2018-04-06T01:02:47.588Z,3.97
2018-04-06T01:05:15.144Z,3.47
2018-04-06T01:07:42.668Z,3.53
2018-04-06T01:10:10.221Z,3.83
2018-04-06T01:12:37.776Z,3.30
2018-04-06T01:15:05.329Z,3.63
2018-04-06T01:17:33.657Z,3.30
2018-04-06T01:20:01.180Z,3.57
2018-04-06T01:22:28.737Z,3.60
2018-04-06T01:24:56.399Z,3.80
2018-04-06T01:27:24.716Z,3.80
2018-04-06T01:29:52.275Z,3.67
2018-04-06T01:32:19.836Z,3.57
2018-04-06T01:34:47.357Z,3.50
2018-04-06T01:37:14.918Z,3.73
2018-04-06T01:39:43.285Z,3.90
2018-04-06T01:42:11.579Z,3.90
2018-04-06T01:44:39.130Z,4.20
2018-04-06T01:47:07.483Z,4.20
2018-04-06T01:49:35.859Z,4.30
2018-04-06T01:52:03.445Z,4.80
2018-04-06T01:54:31.055Z,5.07
2018-04-06T01:56:58.643Z,4.30
2018-04-06T01:59:26.208Z,4.47
2018-04-06T02:01:53.766Z,4.67
2018-04-06T02:04:22.098Z,4.90
2018-04-06T02:06:49.675Z,4.90
2018-04-06T02:09:17.229Z,5.00
2018-04-06T02:11:44.753Z,4.37
2018-04-06T02:14:12.313Z,4.57
2018-04-06T02:16:39.910Z,4.57
2018-04-06T02:19:07.470Z,4.50
2018-04-06T02:21:34.994Z,4.63
2018-04-06T02:24:02.579Z,4.97
2018-04-06T02:26:30.152Z,4.93
2018-04-06T02:28:57.673Z,4.47
2018-04-06T02:31:25.237Z,5.17
2018-04-06T02:33:53.227Z,4.43
2018-04-06T02:36:20.870Z,4.90
2018-04-06T02:38:48.723Z,5.23
2018-04-06T02:41:16.290Z,4.40
2018-04-06T02:43:43.853Z,5.13
2018-04-06T02:46:11.413Z,5.50
2018-04-06T02:48:39.001Z,5.17
2018-04-06T02:51:06.576Z,5.00
2018-04-06T02:53:34.117Z,4.70
2018-04-06T02:56:01.695Z,5.30
2018-04-06T02:58:29.577Z,5.43
2018-04-06T03:00:57.119Z,5.00
2018-04-06T03:03:24.690Z,5.07
2018-04-06T03:05:52.230Z,5.30
2018-04-06T03:08:19.796Z,5.73
2018-04-06T03:10:48.078Z,5.70
2018-04-06T03:13:15.684Z,6.03
2018-04-06T03:15:43.267Z,6.40
2018-04-06T03:18:10.804Z,6.50
2018-04-06T03:20:38.337Z,5.87
2018-04-06T03:23:05.889Z,5.60
2018-04-06T03:25:33.473Z,6.00
2018-04-06T03:28:01.039Z,6.10
2018-04-06T03:30:28.572Z,5.87
2018-04-06T03:32:56.121Z,5.67
2018-04-06T03:35:23.646Z,5.53
2018-04-06T03:37:51.224Z,5.80
2018-04-06T03:40:18.754Z,6.37
2018-04-06T03:42:46.306Z,6.57
2018-04-06T03:45:13.891Z,6.57
2018-04-06T03:47:41.433Z,6.13
2018-04-06T03:50:09.008Z,6.03
2018-04-06T03:52:36.598Z,6.63
2018-04-06T03:55:04.119Z,6.70
2018-04-06T03:57:31.687Z,6.70
2018-04-06T03:59:59.476Z,6.60
2018-04-06T04:02:27.061Z,5.77
2018-04-06T04:04:54.625Z,6.23
2018-04-06T04:07:22.969Z,5.57
2018-04-06T04:09:50.528Z,6.43
2018-04-06T04:12:18.050Z,6.90
2018-04-06T04:14:45.646Z,6.80
2018-04-06T04:17:13.174Z,6.50
2018-04-06T04:19:40.750Z,6.77
2018-04-06T04:22:08.283Z,7.37
2018-04-06T04:24:35.891Z,6.87
2018-04-06T04:27:03.425Z,7.77
2018-04-06T04:29:30.994Z,7.60
2018-04-06T04:31:58.545Z,7.10
2018-04-06T04:34:26.166Z,9.10
2018-04-06T04:36:53.686Z,8.43
2018-04-06T04:39:21.227Z,8.80
2018-04-06T04:41:48.809Z,8.43
2018-04-06T04:44:16.397Z,9.00
2018-04-06T04:46:44.793Z,9.07
2018-04-06T04:49:12.390Z,9.17
2018-04-06T04:51:39.974Z,9.27
2018-04-06T04:54:07.533Z,9.97
2018-04-06T04:56:35.135Z,10.33
2018-04-06T04:59:03.426Z,9.87
2018-04-06T05:01:31.029Z,10.13
2018-04-06T05:03:58.564Z,10.27
2018-04-06T05:06:26.264Z,10.17
2018-04-06T05:08:53.837Z,10.40
2018-04-06T05:11:22.145Z,10.77
2018-04-06T05:13:49.730Z,9.90
2018-04-06T05:16:17.289Z,11.07
2018-04-06T05:18:45.465Z,10.97
2018-04-06T05:21:13.023Z,10.17
2018-04-06T05:23:40.581Z,10.27
2018-04-06T05:26:08.156Z,10.10
2018-04-06T05:28:35.684Z,10.50
2018-04-06T05:31:03.262Z,9.67
2018-04-06T05:33:30.825Z,10.77
2018-04-06T05:35:59.173Z,9.77
2018-04-06T05:38:26.731Z,10.57
2018-04-06T05:40:54.314Z,9.10
2018-04-06T05:43:21.908Z,10.43
2018-04-06T05:45:49.488Z,9.83
2018-04-06T05:48:17.233Z,9.70
2018-04-06T05:50:44.769Z,9.43
2018-04-06T05:53:12.343Z,9.57
2018-04-06T05:55:39.867Z,10.43
2018-04-06T05:58:07.428Z,9.77
2018-04-06T06:00:34.986Z,10.57
2018-04-06T06:03:03.286Z,10.87
2018-04-06T06:05:30.821Z,11.13
2018-04-06T06:07:58.365Z,10.00
2018-04-06T06:10:26.442Z,10.47
2018-04-06T06:12:54.101Z,10.93
2018-04-06T06:15:21.695Z,10.67
2018-04-06T06:17:49.361Z,11.20
2018-04-06T06:20:18.366Z,10.87
2018-04-06T06:22:46.003Z,12.30
2018-04-06T06:25:13.594Z,11.27
2018-04-06T06:27:41.657Z,12.00
2018-04-06T06:30:14.524Z,11.00
2018-04-06T06:32:42.288Z,10.50
2018-04-06T06:35:10.156Z,10.97
2018-04-06T06:37:37.828Z,12.30
2018-04-06T06:40:05.433Z,12.40
2018-04-06T06:42:33.517Z,11.27
2018-04-06T06:45:01.119Z,11.53
2018-04-06T06:47:28.830Z,9.87
2018-04-06T06:49:56.666Z,11.23
2018-04-06T06:52:25.614Z,9.60
2018-04-06T06:54:53.203Z,9.23
2018-04-06T06:57:20.796Z,9.57
2018-04-06T06:59:48.440Z,8.77
2018-04-06T07:02:17.114Z,9.90
2018-04-06T07:04:44.726Z,9.23
2018-04-06T07:07:12.331Z,9.10
2018-04-06T07:09:39.914Z,9.87
2018-04-06T07:12:07.494Z,8.10
2018-04-06T07:14:35.897Z,9.37
2018-04-06T07:17:03.432Z,8.80
2018-04-06T07:19:31.132Z,7.90
2018-04-06T07:21:59.370Z,8.30
2018-04-06T07:24:27.169Z,7.50
2018-04-06T07:26:55.325Z,6.13
2018-04-06T07:29:23.076Z,6.57
2018-04-06T07:31:50.799Z,7.33
2018-04-06T07:34:18.719Z,6.40
2018-04-06T07:36:46.703Z,6.87
2018-04-06T07:39:14.279Z,7.17
2018-04-06T07:41:41.864Z,5.67
2018-04-06T07:44:09.466Z,6.00
2018-04-06T07:46:37.006Z,6.40
2018-04-06T07:49:04.801Z,6.10
2018-04-06T07:51:32.697Z,6.67
2018-04-06T07:54:00.544Z,5.73
2018-04-06T07:56:28.172Z,5.10
2018-04-06T07:58:55.773Z,5.47
2018-04-06T08:01:23.447Z,5.43
2018-04-06T08:03:51.135Z,5.67
2018-04-06T08:06:18.692Z,5.00
2018-04-06T08:08:46.253Z,4.80
2018-04-06T08:11:14.110Z,4.80
2018-04-06T08:13:41.782Z,4.77
2018-04-06T08:16:09.358Z,4.43
2018-04-06T08:18:36.992Z,4.50
2018-04-06T08:21:04.526Z,5.03
2018-04-06T08:23:32.372Z,4.27
2018-04-06T08:26:00.700Z,4.17
2018-04-06T08:28:28.289Z,4.50
2018-04-06T08:30:55.894Z,4.10
2018-04-06T08:33:23.480Z,4.40
2018-04-06T08:35:51.050Z,4.30
2018-04-06T08:38:18.585Z,4.37
2018-04-06T08:40:46.248Z,4.70
2018-04-06T08:43:13.910Z,4.57
2018-04-06T08:45:42.342Z,4.57
2018-04-06T08:48:09.923Z,4.10
2018-04-06T08:50:38.904Z,4.30
2018-04-06T08:53:06.484Z,4.33
2018-04-06T08:55:34.678Z,4.30
2018-04-06T08:58:02.459Z,4.27
2018-04-06T09:00:31.967Z,3.87
2018-04-06T09:02:59.826Z,4.83
2018-04-06T09:05:27.584Z,4.77
2018-04-06T09:07:55.226Z,4.10
2018-04-06T09:10:23.018Z,3.80
2018-04-06T09:12:50.581Z,4.20
2018-04-06T09:15:18.161Z,3.27
2018-04-06T09:17:45.749Z,3.23
2018-04-06T09:20:13.677Z,3.80
2018-04-06T09:22:41.246Z,3.33
2018-04-06T09:25:08.828Z,4.53
2018-04-06T09:27:36.355Z,3.80
2018-04-06T09:30:04.819Z,3.67
2018-04-06T09:32:32.776Z,3.93
2018-04-06T09:35:00.333Z,3.53
2018-04-06T09:37:27.930Z,4.10
2018-04-06T09:39:55.532Z,3.57
2018-04-06T09:42:24.289Z,4.30
2018-04-06T09:44:51.929Z,3.70
2018-04-06T09:47:19.470Z,4.23
2018-04-06T09:49:47.044Z,4.63
2018-04-06T09:52:14.641Z,4.10
2018-04-06T09:54:42.389Z,3.97
2018-04-06T09:57:09.970Z,4.17
2018-04-06T09:59:37.588Z,4.00
2018-04-06T10:02:13.298Z,3.83
2018-04-06T10:04:40.872Z,3.90
2018-04-06T10:07:09.277Z,3.47
2018-04-06T10:09:36.831Z,4.00
2018-04-06T10:12:04.440Z,3.53
2018-04-06T10:14:32.027Z,4.00
2018-04-06T10:16:59.851Z,3.73
2018-04-06T10:19:28.228Z,3.97
2018-04-06T10:21:55.819Z,3.90
2018-04-06T10:24:24.173Z,3.60
2018-04-06T10:26:51.727Z,3.47
2018-04-06T10:29:20.129Z,3.97
2018-04-06T10:31:47.776Z,4.00
2018-04-06T10:34:15.409Z,3.47
2018-04-06T10:36:42.972Z,3.80
2018-04-06T10:39:10.514Z,3.30
2018-04-06T10:41:38.202Z,3.67
2018-04-06T10:44:05.742Z,3.73
2018-04-06T10:46:34.161Z,4.20
2018-04-06T10:49:01.759Z,4.53
2018-04-06T10:51:29.346Z,4.10
2018-04-06T10:53:56.983Z,4.47
2018-04-06T10:56:24.548Z,3.60
2018-04-06T10:58:52.126Z,4.50
2018-04-06T11:01:19.748Z,4.23
2018-04-06T11:03:48.109Z,4.03
2018-04-06T11:06:15.711Z,4.03
2018-04-06T11:08:43.621Z,4.03
2018-04-06T11:11:11.189Z,4.27
2018-04-06T11:13:38.760Z,3.67
2018-04-06T11:16:06.334Z,4.53
2018-04-06T11:18:34.636Z,4.10
2018-04-06T11:21:02.310Z,4.10
2018-04-06T11:23:30.502Z,4.10
2018-04-06T11:25:58.109Z,3.97
2018-04-06T11:28:25.671Z,5.20
2018-04-06T11:30:53.236Z,4.53
2018-04-06T11:33:21.577Z,4.20
2018-04-06T11:35:49.160Z,3.80
2018-04-06T11:38:16.753Z,4.13
2018-04-06T11:40:44.361Z,4.07
2018-04-06T11:43:11.943Z,4.47
2018-04-06T11:45:39.501Z,4.73
2018-04-06T11:48:07.868Z,3.93
2018-04-06T11:50:35.425Z,4.30
2018-04-06T11:53:03.096Z,4.07
2018-04-06T11:55:31.486Z,3.93
2018-04-06T11:57:59.832Z,4.30
2018-04-06T12:00:27.385Z,3.97
2018-04-06T12:02:54.986Z,5.50
2018-04-06T12:05:22.566Z,4.70
2018-04-06T12:07:50.156Z,4.43
2018-04-06T12:10:17.727Z,4.10
2018-04-06T12:12:45.294Z,4.17
2018-04-06T12:15:12.879Z,4.23
2018-04-06T12:17:40.595Z,3.87
2018-04-06T12:20:08.169Z,4.23
2018-04-06T12:22:35.718Z,5.13
2018-04-06T12:25:03.329Z,5.20
2018-04-06T12:27:30.915Z,4.70
2018-04-06T12:29:58.467Z,4.40
2018-04-06T12:32:26.111Z,4.23
2018-04-06T12:34:54.444Z,4.20
2018-04-06T12:37:22.039Z,4.10
2018-04-06T12:39:49.735Z,4.43
2018-04-06T12:42:17.320Z,4.03
2018-04-06T12:44:44.879Z,4.33
2018-04-06T12:47:12.441Z,3.97
2018-04-06T12:49:40.102Z,4.17
2018-04-06T12:52:07.642Z,3.50
2018-04-06T12:54:35.224Z,4.30
2018-04-06T12:57:02.794Z,4.03
2018-04-06T12:59:30.323Z,3.77
2018-04-06T13:01:57.914Z,3.57
2018-04-06T13:04:25.459Z,3.70
2018-04-06T13:06:53.037Z,4.10
2018-04-06T13:09:20.683Z,4.70
2018-04-06T13:11:48.275Z,4.13
2018-04-06T13:14:15.856Z,4.60
2018-04-06T13:16:43.467Z,4.80
2018-04-06T13:19:11.028Z,4.47
2018-04-06T13:21:38.692Z,5.30
2018-04-06T13:24:06.343Z,4.73
2018-04-06T13:26:34.373Z,4.37
2018-04-06T13:29:02.026Z,4.17
2018-04-06T13:31:29.932Z,4.57
2018-04-06T13:33:57.533Z,4.57
2018-04-06T13:36:25.495Z,4.73
2018-04-06T13:38:53.272Z,4.00
2018-04-06T13:41:21.058Z,4.73
2018-04-06T13:43:49.393Z,4.83
2018-04-06T13:46:16.966Z,4.27
2018-04-06T13:48:44.526Z,4.50
2018-04-06T13:51:12.136Z,4.83
2018-04-06T13:53:41.803Z,3.90
2018-04-06T13:56:09.359Z,4.20
2018-04-06T13:58:36.908Z,4.47
2018-04-06T14:01:04.750Z,4.80
2018-04-06T14:03:32.248Z,4.73
2018-04-06T14:05:59.841Z,4.53
2018-04-06T14:08:27.467Z,3.80
2018-04-06T14:10:55.045Z,5.10
2018-04-06T14:13:22.739Z,5.07
2018-04-06T14:15:50.343Z,5.30
2018-04-06T14:18:17.894Z,5.53
2018-04-06T14:20:45.480Z,4.27
2018-04-06T14:23:13.100Z,4.37
2018-04-06T14:25:40.707Z,4.60
2018-04-06T14:28:08.290Z,4.60
2018-04-06T14:30:35.888Z,4.77
2018-04-06T14:33:03.431Z,4.40
2018-04-06T14:35:31.045Z,4.20
2018-04-06T14:37:58.586Z,4.60
2018-04-06T14:40:26.190Z,4.40
2018-04-06T14:42:54.659Z,4.23
2018-04-06T14:45:22.977Z,4.00
2018-04-06T14:47:53.654Z,6.10
2018-04-06T14:50:21.237Z,4.73
2018-04-06T14:52:49.553Z,4.80
2018-04-06T14:55:17.139Z,4.13
2018-04-06T14:57:44.718Z,4.87
2018-04-06T15:00:12.546Z,3.97
2018-04-06T15:02:40.201Z,4.37
2018-04-06T15:05:07.788Z,4.20
2018-04-06T15:07:35.376Z,4.50
2018-04-06T15:10:02.982Z,4.37
2018-04-06T15:12:30.523Z,4.63
2018-04-06T15:14:58.104Z,4.90
2018-04-06T15:17:25.693Z,4.10
2018-04-06T15:19:53.250Z,4.97
2018-04-06T15:22:20.832Z,5.00
2018-04-06T15:24:48.377Z,4.43
2018-04-06T15:27:15.956Z,4.53
2018-04-06T15:29:43.561Z,4.87
2018-04-06T15:32:11.122Z,5.40
2018-04-06T15:34:39.709Z,5.80
2018-04-06T15:37:07.349Z,4.33
2018-04-06T15:39:34.996Z,4.67
2018-04-06T15:42:02.607Z,5.23
2018-04-06T15:44:30.259Z,5.17
2018-04-06T15:46:57.820Z,4.87
2018-04-06T15:49:25.411Z,5.57
2018-04-06T15:51:53.080Z,5.37
2018-04-06T15:54:20.671Z,4.53
2018-04-06T15:56:48.312Z,4.97
2018-04-06T15:59:15.887Z,6.00
2018-04-06T16:01:44.217Z,5.10
2018-04-06T16:04:11.770Z,6.33
2018-04-06T16:06:39.362Z,5.30
2018-04-06T16:09:06.934Z,4.93
2018-04-06T16:11:35.298Z,5.67
2018-04-06T16:14:02.917Z,4.77
2018-04-06T16:16:30.542Z,5.73
2018-04-06T16:18:58.284Z,5.00
2018-04-06T16:21:25.850Z,5.03
2018-04-06T16:23:53.426Z,5.10
2018-04-06T16:26:21.040Z,5.17
2018-04-06T16:28:48.608Z,6.17
2018-04-06T16:31:16.193Z,5.30
2018-04-06T16:33:44.518Z,4.60
2018-04-06T16:36:12.130Z,5.47
2018-04-06T16:38:39.658Z,5.47
2018-04-06T16:41:07.228Z,5.97
2018-04-06T16:43:34.833Z,6.10
2018-04-06T16:46:02.390Z,6.20
2018-04-06T16:48:29.962Z,5.50
2018-04-06T16:50:57.498Z,6.17
2018-04-06T16:53:26.246Z,5.57
2018-04-06T16:55:53.819Z,5.20
2018-04-06T16:58:21.362Z,5.53
2018-04-06T17:00:48.951Z,5.43
2018-04-06T17:03:16.483Z,5.87
2018-04-06T17:05:44.052Z,5.53
2018-04-06T17:08:11.617Z,5.70
2018-04-06T17:10:39.234Z,5.67
2018-04-06T17:13:06.815Z,5.50
2018-04-06T17:15:34.434Z,5.70
2018-04-06T17:18:02.801Z,4.90
2018-04-06T17:20:31.227Z,6.20
2018-04-06T17:22:58.803Z,6.30
2018-04-06T17:25:26.378Z,5.60
2018-04-06T17:27:53.911Z,6.00
2018-04-06T17:30:21.500Z,5.83
2018-04-06T17:32:49.968Z,6.03
2018-04-06T17:35:17.570Z,5.87
2018-04-06T17:37:45.120Z,5.53
2018-04-06T17:40:12.730Z,5.97
2018-04-06T17:42:40.361Z,5.60
2018-04-06T17:45:07.934Z,5.93
2018-04-06T17:47:35.616Z,5.80
2018-04-06T17:50:03.149Z,5.37
2018-04-06T17:52:30.738Z,6.00
2018-04-06T17:54:58.332Z,5.73
2018-04-06T17:57:25.982Z,5.70
2018-04-06T17:59:53.537Z,6.27
2018-04-06T18:02:21.104Z,5.87
2018-04-06T18:04:48.658Z,6.53
2018-04-06T18:07:16.267Z,7.13
2018-04-06T18:09:44.590Z,6.47
2018-04-06T18:12:12.214Z,5.90
2018-04-06T18:14:39.837Z,6.00
2018-04-06T18:17:07.438Z,6.30
2018-04-06T18:19:35.017Z,6.80
2018-04-06T18:22:03.406Z,6.37
2018-04-06T18:24:31.038Z,6.27
2018-04-06T18:26:59.188Z,6.17
2018-04-06T18:29:26.725Z,5.73
2018-04-06T18:31:54.319Z,6.17
2018-04-06T18:34:21.947Z,5.43
2018-04-06T18:36:49.565Z,5.80
2018-04-06T18:39:17.100Z,6.23
2018-04-06T18:41:44.724Z,6.17
2018-04-06T18:44:12.269Z,5.97
2018-04-06T18:46:39.876Z,6.37
2018-04-06T18:49:08.360Z,7.30
2018-04-06T18:51:35.915Z,7.00
2018-04-06T18:54:03.492Z,6.20
2018-04-06T18:56:31.070Z,7.33
2018-04-06T18:58:58.654Z,7.50
2018-04-06T19:01:26.572Z,7.67
2018-04-06T19:03:54.238Z,8.40
2018-04-06T19:06:22.538Z,9.10
2018-04-06T19:08:50.739Z,10.47
2018-04-06T19:11:18.316Z,8.60
2018-04-06T19:13:45.946Z,8.63
2018-04-06T19:16:13.486Z,7.67
2018-04-06T19:18:41.097Z,7.77
2018-04-06T19:21:08.752Z,8.10
2018-04-06T19:23:36.300Z,9.47
2018-04-06T19:26:03.874Z,9.10
2018-04-06T19:28:31.433Z,7.90
2018-04-06T19:30:58.985Z,8.83
2018-04-06T19:33:26.594Z,8.57
2018-04-06T19:35:54.193Z,8.10
2018-04-06T19:38:21.765Z,7.10
2018-04-06T19:40:52.467Z,8.17
2018-04-06T19:43:20.054Z,8.40
2018-04-06T19:45:47.616Z,9.13
2018-04-06T19:48:15.230Z,8.93
2018-04-06T19:50:43.557Z,8.67
2018-04-06T19:53:11.117Z,7.97
2018-04-06T19:55:38.668Z,8.20
2018-04-06T19:58:06.324Z,8.20
2018-04-06T20:00:33.887Z,8.67
2018-04-06T20:03:01.448Z,7.57
2018-04-06T20:05:29.091Z,7.77
2018-04-06T20:07:56.648Z,8.30
2018-04-06T20:10:24.229Z,8.13
2018-04-06T20:12:51.782Z,8.63
2018-04-06T20:15:19.423Z,8.40
2018-04-06T20:17:47.021Z,6.87
2018-04-06T20:20:14.605Z,8.00
2018-04-06T20:22:42.167Z,7.80
2018-04-06T20:25:09.721Z,7.77
2018-04-06T20:27:37.308Z,8.77
2018-04-06T20:30:04.923Z,8.00
2018-04-06T20:32:32.575Z,7.47
2018-04-06T20:35:00.139Z,7.20
2018-04-06T20:37:27.767Z,7.73
2018-04-06T20:39:55.346Z,7.67
2018-04-06T20:42:22.950Z,7.27
2018-04-06T20:44:50.558Z,7.57
2018-04-06T20:47:18.136Z,7.67
2018-04-06T20:49:45.682Z,7.63
2018-04-06T20:52:13.253Z,7.77
2018-04-06T20:54:40.854Z,7.30
2018-04-06T20:57:08.418Z,7.07
2018-04-06T20:59:36.026Z,7.03
2018-04-06T21:02:03.575Z,7.00
2018-04-06T21:04:31.256Z,7.20
2018-04-06T21:06:58.796Z,6.90
2018-04-06T21:09:27.449Z,6.27
2018-04-06T21:11:56.067Z,6.53
2018-04-06T21:14:25.702Z,6.60
2018-04-06T21:16:53.648Z,6.63
2018-04-06T21:19:21.216Z,6.67
2018-04-06T21:21:48.792Z,6.73
2018-04-06T21:24:16.326Z,6.60
2018-04-06T21:26:43.948Z,6.63
2018-04-06T21:29:12.700Z,6.30
2018-04-06T21:31:40.242Z,6.50
2018-04-06T21:34:07.806Z,7.17
2018-04-06T21:36:35.349Z,6.50
2018-04-06T21:39:02.926Z,7.33
2018-04-06T21:41:30.502Z,5.80
2018-04-06T21:43:58.544Z,7.60
2018-04-06T21:46:26.105Z,7.47
2018-04-06T21:48:53.729Z,6.80
2018-04-06T21:51:21.305Z,7.97
2018-04-06T21:53:48.953Z,7.10
2018-04-06T21:56:16.515Z,7.50
2018-04-06T21:58:44.857Z,6.43
2018-04-06T22:01:12.503Z,7.50
2018-04-06T22:03:40.070Z,6.60
2018-04-06T22:06:07.625Z,6.50
2018-04-06T22:08:35.187Z,7.33
2018-04-06T22:11:02.715Z,6.43
2018-04-06T22:13:30.307Z,7.67
2018-04-06T22:15:57.852Z,7.13
2018-04-06T22:18:25.376Z,7.20
2018-04-06T22:20:53.709Z,6.63
2018-04-06T22:23:21.264Z,7.03
2018-04-06T22:25:48.833Z,7.13
2018-04-06T22:28:16.354Z,7.40
2018-04-06T22:30:43.954Z,8.10
2018-04-06T22:33:11.548Z,7.10
2018-04-06T22:35:39.116Z,7.57
2018-04-06T22:38:07.478Z,7.23
2018-04-06T22:40:35.040Z,7.93
2018-04-06T22:43:02.584Z,7.67
2018-04-06T22:45:30.184Z,7.70
2018-04-06T22:47:57.713Z,7.83
2018-04-06T22:50:25.288Z,7.07
2018-04-06T22:52:52.888Z,7.37
2018-04-06T22:55:20.454Z,7.93
2018-04-06T22:57:47.981Z,7.27
2018-04-06T23:00:15.585Z,7.73
2018-04-06T23:02:43.149Z,7.17
2018-04-06T23:05:10.762Z,8.13
2018-04-06T23:07:38.337Z,7.07
2018-04-06T23:10:05.861Z,7.93
2018-04-06T23:12:33.493Z,8.53
2018-04-06T23:15:01.868Z,8.37
2018-04-06T23:17:29.398Z,8.83
2018-04-06T23:19:57.026Z,7.70
2018-04-06T23:22:24.572Z,8.23
2018-04-06T23:24:52.905Z,7.63
2018-04-06T23:27:20.450Z,7.37
2018-04-06T23:29:48.050Z,8.37
2018-04-06T23:32:15.629Z,8.80
2018-04-06T23:34:43.977Z,8.70
2018-04-06T23:37:11.545Z,7.60
2018-04-06T23:39:40.105Z,8.13
2018-04-06T23:42:07.689Z,8.33
2018-04-06T23:44:35.686Z,8.30
2018-04-06T23:47:03.272Z,8.03
2018-04-06T23:49:30.810Z,8.93
2018-04-06T23:51:58.366Z,7.60
2018-04-06T23:54:26.029Z,7.77
2018-04-06T23:56:53.586Z,7.50
2018-04-06T23:59:21.170Z,6.93
